Presidio, Texas
Current Conditions -  °F | °C
As of 2:15 AM on Tuesday 21 Oct 2014 (Local Time) from KPRS Reporting Station
Overcast Overcast  
Wind Chill: 67°   Ceiling: 3900
Heat Index: 67°   Visibility: 10mi
Dew Point: 59°   Wind: 9mph
Humidity: 76%   Direction: 30°NNE
Pressure: 30.03"   Gusts: NA
Location:  29.56°N, 104.37°W
Report Text: KPRS 210715Z AUTO 03008KT 10SM OVC039 19/15 A3003 RMK AO2 LTG DSNT W THRU N T01920148
Loading
Personal Weather Stations






























Interactive Weather Map
Tropical Storm Tracking
New forecast layout! Learn more

10-Day Weather Forecast

Advertisements
Track Severe Weather on mobile